sensor_id;sensor_type;location;lat;lon;timestamp;pressure;altitude;pressure_sealevel;temperature;humidity
19676;BME280;39539;52.202;9.876;2023-06-22T00:00:51;101173.16;;;18.69;100.00
19676;BME280;39539;52.202;9.876;2023-06-22T00:03:18;101169.91;;;18.67;100.00
19676;BME280;39539;52.202;9.876;2023-06-22T00:05:43;101169.81;;;18.62;100.00
19676;BME280;39539;52.202;9.876;2023-06-22T00:08:09;101167.56;;;18.54;100.00
19676;BME280;39539;52.202;9.876;2023-06-22T00:10:34;101171.00;;;18.49;100.00
19676;BME280;39539;52.202;9.876;2023-06-22T00:13:01;101176.06;;;18.46;100.00
19676;BME280;39539;52.202;9.876;2023-06-22T00:15:33;101187.41;;;18.48;100.00
19676;BME280;39539;52.202;9.876;2023-06-22T00:17:59;101183.88;;;18.47;100.00
19676;BME280;39539;52.202;9.876;2023-06-22T00:20:25;101186.59;;;18.47;100.00
19676;BME280;39539;52.202;9.876;2023-06-22T00:22:54;101194.66;;;18.47;100.00
19676;BME280;39539;52.202;9.876;2023-06-22T00:25:20;101191.06;;;18.42;100.00
19676;BME280;39539;52.202;9.876;2023-06-22T00:27:46;101205.75;;;18.51;100.00
19676;BME280;39539;52.202;9.876;2023-06-22T00:30:12;101199.16;;;18.42;100.00
19676;BME280;39539;52.202;9.876;2023-06-22T00:32:37;101198.56;;;18.39;100.00
19676;BME280;39539;52.202;9.876;2023-06-22T00:35:03;101187.50;;;18.36;100.00
19676;BME280;39539;52.202;9.876;2023-06-22T00:37:28;101192.25;;;18.29;100.00
19676;BME280;39539;52.202;9.876;2023-06-22T00:39:55;101197.19;;;18.20;100.00
19676;BME280;39539;52.202;9.876;2023-06-22T00:42:21;101185.69;;;18.08;100.00
19676;BME280;39539;52.202;9.876;2023-06-22T00:44:46;101177.47;;;17.98;100.00
19676;BME280;39539;52.202;9.876;2023-06-22T00:47:17;101179.69;;;18.01;100.00
19676;BME280;39539;52.202;9.876;2023-06-22T00:49:43;101177.72;;;17.96;100.00
19676;BME280;39539;52.202;9.876;2023-06-22T00:52:09;101176.22;;;17.88;100.00
19676;BME280;39539;52.202;9.876;2023-06-22T00:54:40;101168.53;;;17.80;100.00
19676;BME280;39539;52.202;9.876;2023-06-22T00:57:13;101172.63;;;17.83;100.00
19676;BME280;39539;52.202;9.876;2023-06-22T00:59:42;101158.25;;;17.77;100.00
19676;BME280;39539;52.202;9.876;2023-06-22T01:02:08;101156.03;;;17.74;100.00
19676;BME280;39539;52.202;9.876;2023-06-22T01:04:37;101164.69;;;17.76;100.00
19676;BME280;39539;52.202;9.876;2023-06-22T01:09:35;101166.16;;;17.67;100.00
19676;BME280;39539;52.202;9.876;2023-06-22T01:12:07;101150.25;;;17.65;100.00
19676;BME280;39539;52.202;9.876;2023-06-22T01:17:32;101150.56;;;17.69;100.00
19676;BME280;39539;52.202;9.876;2023-06-22T01:19:59;101148.31;;;17.78;100.00
19676;BME280;39539;52.202;9.876;2023-06-22T01:22:29;101154.44;;;17.73;100.00
19676;BME280;39539;52.202;9.876;2023-06-22T01:25:13;101143.91;;;17.71;100.00
19676;BME280;39539;52.202;9.876;2023-06-22T01:30:13;101151.91;;;17.66;100.00
19676;BME280;39539;52.202;9.876;2023-06-22T01:32:41;101152.53;;;17.57;100.00
19676;BME280;39539;52.202;9.876;2023-06-22T01:35:10;101156.69;;;17.64;100.00
19676;BME280;39539;52.202;9.876;2023-06-22T01:37:38;101158.56;;;17.64;100.00
19676;BME280;39539;52.202;9.876;2023-06-22T01:40:04;101165.56;;;17.65;100.00
19676;BME280;39539;52.202;9.876;2023-06-22T01:42:31;101173.16;;;17.68;100.00
19676;BME280;39539;52.202;9.876;2023-06-22T01:44:57;101165.56;;;17.65;100.00
19676;BME280;39539;52.202;9.876;2023-06-22T01:47:24;101143.25;;;17.64;100.00
19676;BME280;39539;52.202;9.876;2023-06-22T01:49:50;101148.03;;;17.62;100.00
19676;BME280;39539;52.202;9.876;2023-06-22T01:52:18;101143.38;;;17.58;100.00
19676;BME280;39539;52.202;9.876;2023-06-22T01:54:46;101153.53;;;17.67;100.00
19676;BME280;39539;52.202;9.876;2023-06-22T01:57:11;101160.75;;;17.79;100.00
19676;BME280;39539;52.202;9.876;2023-06-22T01:59:43;101149.84;;;17.73;100.00
19676;BME280;39539;52.202;9.876;2023-06-22T02:02:15;101159.94;;;17.78;100.00
19676;BME280;39539;52.202;9.876;2023-06-22T02:04:47;101158.09;;;17.67;100.00
19676;BME280;39539;52.202;9.876;2023-06-22T02:07:15;101162.03;;;17.47;100.00
19676;BME280;39539;52.202;9.876;2023-06-22T02:09:47;101159.03;;;17.32;100.00
19676;BME280;39539;52.202;9.876;2023-06-22T02:12:17;101153.97;;;17.19;100.00
19676;BME280;39539;52.202;9.876;2023-06-22T02:14:45;101152.63;;;16.93;100.00
19676;BME280;39539;52.202;9.876;2023-06-22T02:17:12;101156.63;;;16.78;100.00
19676;BME280;39539;52.202;9.876;2023-06-22T02:19:38;101165.13;;;16.52;100.00
19676;BME280;39539;52.202;9.876;2023-06-22T02:22:04;101159.31;;;16.08;100.00
19676;BME280;39539;52.202;9.876;2023-06-22T02:24:31;101162.66;;;16.03;100.00
19676;BME280;39539;52.202;9.876;2023-06-22T02:26:59;101160.31;;;16.07;100.00
19676;BME280;39539;52.202;9.876;2023-06-22T02:29:25;101154.84;;;16.02;100.00
19676;BME280;39539;52.202;9.876;2023-06-22T02:31:50;101155.09;;;16.12;100.00
19676;BME280;39539;52.202;9.876;2023-06-22T02:34:15;101160.56;;;16.05;100.00
19676;BME280;39539;52.202;9.876;2023-06-22T02:36:49;101173.88;;;16.12;100.00
19676;BME280;39539;52.202;9.876;2023-06-22T02:39:24;101180.63;;;16.14;100.00
19676;BME280;39539;52.202;9.876;2023-06-22T02:41:50;101187.75;;;16.21;100.00
19676;BME280;39539;52.202;9.876;2023-06-22T02:44:16;101190.91;;;16.29;100.00
19676;BME280;39539;52.202;9.876;2023-06-22T02:46:42;101192.44;;;16.37;100.00
19676;BME280;39539;52.202;9.876;2023-06-22T02:49:07;101195.72;;;16.39;100.00
19676;BME280;39539;52.202;9.876;2023-06-22T02:51:33;101206.00;;;16.54;100.00
19676;BME280;39539;52.202;9.876;2023-06-22T02:53:59;101215.53;;;16.61;100.00
19676;BME280;39539;52.202;9.876;2023-06-22T02:56:28;101212.41;;;16.65;100.00
19676;BME280;39539;52.202;9.876;2023-06-22T02:58:55;101212.44;;;16.76;100.00
19676;BME280;39539;52.202;9.876;2023-06-22T03:01:26;101213.81;;;16.91;100.00
19676;BME280;39539;52.202;9.876;2023-06-22T03:03:53;101214.38;;;16.93;100.00
19676;BME280;39539;52.202;9.876;2023-06-22T03:06:19;101222.69;;;16.91;100.00
19676;BME280;39539;52.202;9.876;2023-06-22T03:08:48;101217.06;;;16.93;100.00
19676;BME280;39539;52.202;9.876;2023-06-22T03:11:13;101215.44;;;16.92;100.00
19676;BME280;39539;52.202;9.876;2023-06-22T03:13:38;101209.03;;;16.81;100.00
19676;BME280;39539;52.202;9.876;2023-06-22T03:16:04;101209.59;;;16.71;100.00
19676;BME280;39539;52.202;9.876;2023-06-22T03:18:29;101215.91;;;16.65;100.00
19676;BME280;39539;52.202;9.876;2023-06-22T03:20:55;101220.56;;;16.70;100.00
19676;BME280;39539;52.202;9.876;2023-06-22T03:23:20;101212.31;;;16.83;100.00
19676;BME280;39539;52.202;9.876;2023-06-22T03:25:45;101217.19;;;16.98;100.00
19676;BME280;39539;52.202;9.876;2023-06-22T03:28:11;101216.59;;;17.08;100.00
19676;BME280;39539;52.202;9.876;2023-06-22T03:30:36;101220.66;;;17.22;100.00
19676;BME280;39539;52.202;9.876;2023-06-22T03:33:01;101218.19;;;17.20;100.00
19676;BME280;39539;52.202;9.876;2023-06-22T03:35:27;101219.47;;;17.18;100.00
19676;BME280;39539;52.202;9.876;2023-06-22T03:37:53;101220.06;;;17.20;100.00
19676;BME280;39539;52.202;9.876;2023-06-22T03:40:18;101228.34;;;17.30;100.00
19676;BME280;39539;52.202;9.876;2023-06-22T03:42:45;101214.44;;;17.33;100.00
19676;BME280;39539;52.202;9.876;2023-06-22T03:45:10;101197.34;;;17.39;100.00
19676;BME280;39539;52.202;9.876;2023-06-22T03:47:36;101206.28;;;17.57;100.00
19676;BME280;39539;52.202;9.876;2023-06-22T03:50:01;101208.34;;;17.78;100.00
19676;BME280;39539;52.202;9.876;2023-06-22T03:52:28;101207.47;;;17.89;100.00
19676;BME280;39539;52.202;9.876;2023-06-22T03:54:54;101200.03;;;17.97;100.00
19676;BME280;39539;52.202;9.876;2023-06-22T03:57:19;101196.94;;;18.05;100.00
19676;BME280;39539;52.202;9.876;2023-06-22T03:59:46;101193.34;;;17.99;100.00
19676;BME280;39539;52.202;9.876;2023-06-22T04:02:11;101200.22;;;18.07;100.00
19676;BME280;39539;52.202;9.876;2023-06-22T04:04:42;101181.59;;;17.88;100.00
19676;BME280;39539;52.202;9.876;2023-06-22T04:07:09;101188.97;;;18.10;100.00
19676;BME280;39539;52.202;9.876;2023-06-22T04:09:34;101191.34;;;18.23;100.00
19676;BME280;39539;52.202;9.876;2023-06-22T04:12:01;101195.47;;;18.31;100.00
19676;BME280;39539;52.202;9.876;2023-06-22T04:14:26;101185.22;;;18.11;100.00
19676;BME280;39539;52.202;9.876;2023-06-22T04:16:54;101181.88;;;18.04;100.00
19676;BME280;39539;52.202;9.876;2023-06-22T04:19:20;101196.38;;;18.03;100.00
19676;BME280;39539;52.202;9.876;2023-06-22T04:21:45;101204.44;;;18.03;100.00
19676;BME280;39539;52.202;9.876;2023-06-22T04:24:14;101202.97;;;17.95;100.00
19676;BME280;39539;52.202;9.876;2023-06-22T04:26:40;101203.50;;;18.09;100.00
19676;BME280;39539;52.202;9.876;2023-06-22T04:29:10;101211.88;;;18.29;100.00
19676;BME280;39539;52.202;9.876;2023-06-22T04:31:35;101201.13;;;18.46;100.00
19676;BME280;39539;52.202;9.876;2023-06-22T04:34:04;101206.09;;;18.54;100.00
19676;BME280;39539;52.202;9.876;2023-06-22T04:36:38;101204.34;;;18.65;100.00
19676;BME280;39539;52.202;9.876;2023-06-22T04:39:07;101191.94;;;18.64;100.00
19676;BME280;39539;52.202;9.876;2023-06-22T04:41:37;101205.66;;;18.79;100.00
19676;BME280;39539;52.202;9.876;2023-06-22T04:44:18;101210.09;;;18.91;100.00
19676;BME280;39539;52.202;9.876;2023-06-22T04:47:00;101205.06;;;18.94;100.00
19676;BME280;39539;52.202;9.876;2023-06-22T04:49:27;101191.59;;;18.94;100.00
19676;BME280;39539;52.202;9.876;2023-06-22T04:52:00;101188.63;;;18.96;100.00
19676;BME280;39539;52.202;9.876;2023-06-22T04:54:25;101194.09;;;19.01;100.00
19676;BME280;39539;52.202;9.876;2023-06-22T04:56:51;101189.28;;;19.03;100.00
19676;BME280;39539;52.202;9.876;2023-06-22T04:59:23;101172.84;;;19.04;100.00
19676;BME280;39539;52.202;9.876;2023-06-22T05:01:54;101166.25;;;18.95;100.00
19676;BME280;39539;52.202;9.876;2023-06-22T05:04:19;101180.25;;;18.92;100.00
19676;BME280;39539;52.202;9.876;2023-06-22T05:06:44;101170.56;;;18.96;100.00
19676;BME280;39539;52.202;9.876;2023-06-22T05:09:10;101185.72;;;19.19;100.00
19676;BME280;39539;52.202;9.876;2023-06-22T05:11:40;101179.91;;;19.33;100.00
19676;BME280;39539;52.202;9.876;2023-06-22T05:14:11;101182.00;;;19.52;100.00
19676;BME280;39539;52.202;9.876;2023-06-22T05:16:37;101183.03;;;19.68;100.00
19676;BME280;39539;52.202;9.876;2023-06-22T05:19:03;101180.06;;;19.70;100.00
19676;BME280;39539;52.202;9.876;2023-06-22T05:21:30;101177.63;;;19.68;100.00
19676;BME280;39539;52.202;9.876;2023-06-22T05:23:56;101170.09;;;19.70;100.00
19676;BME280;39539;52.202;9.876;2023-06-22T05:26:26;101165.06;;;19.84;100.00
19676;BME280;39539;52.202;9.876;2023-06-22T05:28:51;101160.91;;;19.99;100.00
19676;BME280;39539;52.202;9.876;2023-06-22T05:31:17;101160.50;;;19.85;100.00
19676;BME280;39539;52.202;9.876;2023-06-22T05:33:45;101167.31;;;19.92;100.00
19676;BME280;39539;52.202;9.876;2023-06-22T05:36:11;101167.00;;;19.89;100.00
19676;BME280;39539;52.202;9.876;2023-06-22T05:38:38;101159.78;;;19.94;100.00
19676;BME280;39539;52.202;9.876;2023-06-22T05:41:04;101166.13;;;20.10;100.00
19676;BME280;39539;52.202;9.876;2023-06-22T05:43:30;101160.69;;;20.05;100.00
19676;BME280;39539;52.202;9.876;2023-06-22T05:45:56;101165.75;;;20.34;100.00
19676;BME280;39539;52.202;9.876;2023-06-22T05:48:21;101162.59;;;20.47;100.00
19676;BME280;39539;52.202;9.876;2023-06-22T05:50:47;101166.00;;;20.75;100.00
19676;BME280;39539;52.202;9.876;2023-06-22T05:53:12;101165.22;;;20.79;100.00
19676;BME280;39539;52.202;9.876;2023-06-22T05:55:38;101169.09;;;20.99;100.00
19676;BME280;39539;52.202;9.876;2023-06-22T05:58:03;101158.63;;;21.23;100.00
19676;BME280;39539;52.202;9.876;2023-06-22T06:00:29;101163.53;;;21.36;100.00
19676;BME280;39539;52.202;9.876;2023-06-22T06:02:56;101162.47;;;21.32;100.00
19676;BME280;39539;52.202;9.876;2023-06-22T06:05:22;101152.78;;;21.57;100.00
19676;BME280;39539;52.202;9.876;2023-06-22T06:07:59;101156.06;;;21.79;100.00
19676;BME280;39539;52.202;9.876;2023-06-22T06:10:37;101157.16;;;22.04;100.00
19676;BME280;39539;52.202;9.876;2023-06-22T06:13:04;101158.25;;;22.23;99.49
19676;BME280;39539;52.202;9.876;2023-06-22T06:15:30;101155.81;;;22.27;98.67
19676;BME280;39539;52.202;9.876;2023-06-22T06:17:55;101137.63;;;22.32;98.20
19676;BME280;39539;52.202;9.876;2023-06-22T06:20:23;101136.03;;;22.31;97.96
19676;BME280;39539;52.202;9.876;2023-06-22T06:22:49;101128.97;;;22.30;98.06
19676;BME280;39539;52.202;9.876;2023-06-22T06:25:15;101124.91;;;22.28;97.61
19676;BME280;39539;52.202;9.876;2023-06-22T06:28:01;101118.19;;;22.20;98.62
19676;BME280;39539;52.202;9.876;2023-06-22T06:30:28;101119.22;;;22.29;98.84
19676;BME280;39539;52.202;9.876;2023-06-22T06:32:57;101117.06;;;22.26;98.90
19676;BME280;39539;52.202;9.876;2023-06-22T06:35:22;101119.25;;;22.24;98.95
19676;BME280;39539;52.202;9.876;2023-06-22T06:37:50;101110.84;;;22.31;98.10
19676;BME280;39539;52.202;9.876;2023-06-22T06:40:21;101119.50;;;22.33;98.27
19676;BME280;39539;52.202;9.876;2023-06-22T06:42:52;101115.44;;;22.10;98.62
19676;BME280;39539;52.202;9.876;2023-06-22T06:45:21;101112.75;;;22.25;97.74
19676;BME280;39539;52.202;9.876;2023-06-22T06:47:49;101113.81;;;22.34;97.12
19676;BME280;39539;52.202;9.876;2023-06-22T06:50:15;101110.97;;;22.70;96.61
19676;BME280;39539;52.202;9.876;2023-06-22T06:52:42;101109.25;;;22.90;92.12
19676;BME280;39539;52.202;9.876;2023-06-22T06:55:23;101109.91;;;22.66;92.25
19676;BME280;39539;52.202;9.876;2023-06-22T06:57:50;101108.31;;;22.65;90.97
19676;BME280;39539;52.202;9.876;2023-06-22T07:00:18;101106.16;;;22.57;92.27
19676;BME280;39539;52.202;9.876;2023-06-22T07:02:45;101099.84;;;22.82;89.30
19676;BME280;39539;52.202;9.876;2023-06-22T07:05:13;101109.22;;;23.10;88.91
19676;BME280;39539;52.202;9.876;2023-06-22T07:07:40;101108.91;;;23.56;86.81
19676;BME280;39539;52.202;9.876;2023-06-22T07:10:08;101101.72;;;23.75;85.86
19676;BME280;39539;52.202;9.876;2023-06-22T07:12:34;101102.88;;;23.64;82.21
19676;BME280;39539;52.202;9.876;2023-06-22T07:15:07;101096.06;;;23.67;83.17
19676;BME280;39539;52.202;9.876;2023-06-22T07:17:40;101104.97;;;24.31;79.88
19676;BME280;39539;52.202;9.876;2023-06-22T07:20:07;101072.78;;;24.67;78.73
19676;BME280;39539;52.202;9.876;2023-06-22T07:22:43;101083.00;;;24.75;76.28
19676;BME280;39539;52.202;9.876;2023-06-22T07:25:10;101076.19;;;24.30;76.28
19676;BME280;39539;52.202;9.876;2023-06-22T07:27:57;101063.13;;;23.79;79.53
19676;BME280;39539;52.202;9.876;2023-06-22T07:30:25;101062.38;;;23.68;80.28
19676;BME280;39539;52.202;9.876;2023-06-22T07:32:50;101069.78;;;23.57;79.59
19676;BME280;39539;52.202;9.876;2023-06-22T07:35:16;101064.72;;;23.45;81.06
19676;BME280;39539;52.202;9.876;2023-06-22T07:37:42;101043.94;;;23.36;80.95
19676;BME280;39539;52.202;9.876;2023-06-22T07:40:09;101044.28;;;23.24;82.57
19676;BME280;39539;52.202;9.876;2023-06-22T07:42:36;101053.03;;;23.50;79.98
19676;BME280;39539;52.202;9.876;2023-06-22T07:45:03;101060.88;;;23.51;80.83
19676;BME280;39539;52.202;9.876;2023-06-22T07:47:29;101064.00;;;23.35;81.28
19676;BME280;39539;52.202;9.876;2023-06-22T07:49:58;101055.41;;;23.22;82.66
19676;BME280;39539;52.202;9.876;2023-06-22T07:52:28;101049.44;;;23.20;83.79
19676;BME280;39539;52.202;9.876;2023-06-22T07:54:56;101057.88;;;23.19;85.21
19676;BME280;39539;52.202;9.876;2023-06-22T07:57:22;101060.00;;;23.27;85.28
19676;BME280;39539;52.202;9.876;2023-06-22T07:59:49;101064.59;;;23.26;83.45
19676;BME280;39539;52.202;9.876;2023-06-22T08:02:14;101065.28;;;23.08;85.20
19676;BME280;39539;52.202;9.876;2023-06-22T08:04:41;101054.47;;;23.03;84.94
19676;BME280;39539;52.202;9.876;2023-06-22T08:07:07;101053.88;;;23.06;85.44
19676;BME280;39539;52.202;9.876;2023-06-22T08:09:34;101059.84;;;23.08;86.54
19676;BME280;39539;52.202;9.876;2023-06-22T08:12:00;101043.28;;;23.09;87.27
19676;BME280;39539;52.202;9.876;2023-06-22T08:14:27;101060.00;;;23.27;84.93
19676;BME280;39539;52.202;9.876;2023-06-22T08:16:52;101041.84;;;23.22;85.33
19676;BME280;39539;52.202;9.876;2023-06-22T08:19:18;101064.03;;;23.29;84.49
19676;BME280;39539;52.202;9.876;2023-06-22T08:21:44;101052.16;;;23.20;85.14
19676;BME280;39539;52.202;9.876;2023-06-22T08:24:10;101060.03;;;23.22;85.43
19676;BME280;39539;52.202;9.876;2023-06-22T08:26:36;101062.38;;;23.34;85.26
19676;BME280;39539;52.202;9.876;2023-06-22T08:29:06;101063.63;;;23.46;85.86
19676;BME280;39539;52.202;9.876;2023-06-22T08:31:32;101059.91;;;23.37;86.74
19676;BME280;39539;52.202;9.876;2023-06-22T08:33:59;101065.16;;;23.23;87.16
19676;BME280;39539;52.202;9.876;2023-06-22T08:36:26;101062.88;;;23.41;87.60
19676;BME280;39539;52.202;9.876;2023-06-22T08:38:55;101055.56;;;23.41;86.36
19676;BME280;39539;52.202;9.876;2023-06-22T08:41:57;101064.69;;;23.50;84.88
19676;BME280;39539;52.202;9.876;2023-06-22T08:44:22;101062.59;;;23.42;85.08
19676;BME280;39539;52.202;9.876;2023-06-22T08:46:49;101064.94;;;23.54;84.97
19676;BME280;39539;52.202;9.876;2023-06-22T08:49:14;101060.31;;;23.54;86.72
19676;BME280;39539;52.202;9.876;2023-06-22T08:51:43;101052.50;;;23.14;87.74
19676;BME280;39539;52.202;9.876;2023-06-22T08:54:12;101048.00;;;22.89;87.71
19676;BME280;39539;52.202;9.876;2023-06-22T08:56:37;101049.44;;;23.20;86.39
19676;BME280;39539;52.202;9.876;2023-06-22T08:59:02;101043.63;;;23.37;85.62
19676;BME280;39539;52.202;9.876;2023-06-22T09:01:28;101042.63;;;23.28;86.19
19676;BME280;39539;52.202;9.876;2023-06-22T09:03:53;101040.53;;;23.49;85.73
19676;BME280;39539;52.202;9.876;2023-06-22T09:06:23;101020.41;;;23.55;85.12
19676;BME280;39539;52.202;9.876;2023-06-22T09:08:52;101036.22;;;23.48;85.70
19676;BME280;39539;52.202;9.876;2023-06-22T09:11:17;101017.59;;;23.70;85.26
19676;BME280;39539;52.202;9.876;2023-06-22T09:13:44;101018.16;;;24.20;81.32
19676;BME280;39539;52.202;9.876;2023-06-22T09:16:09;101003.13;;;24.52;79.07
19676;BME280;39539;52.202;9.876;2023-06-22T09:18:36;100990.75;;;24.79;77.67
19676;BME280;39539;52.202;9.876;2023-06-22T09:21:02;100994.91;;;25.61;74.11
19676;BME280;39539;52.202;9.876;2023-06-22T09:23:27;100986.66;;;25.66;74.27
19676;BME280;39539;52.202;9.876;2023-06-22T09:25:53;100976.16;;;25.59;74.48
19676;BME280;39539;52.202;9.876;2023-06-22T09:28:19;100992.59;;;25.82;74.43
19676;BME280;39539;52.202;9.876;2023-06-22T09:30:50;100999.16;;;25.81;74.46
19676;BME280;39539;52.202;9.876;2023-06-22T09:33:16;101004.81;;;25.70;74.28
19676;BME280;39539;52.202;9.876;2023-06-22T09:35:41;101004.34;;;25.82;75.92
19676;BME280;39539;52.202;9.876;2023-06-22T09:38:38;100997.16;;;25.26;77.75
19676;BME280;39539;52.202;9.876;2023-06-22T09:41:04;100992.44;;;25.31;77.96
19676;BME280;39539;52.202;9.876;2023-06-22T09:43:31;100999.34;;;25.57;77.04
19676;BME280;39539;52.202;9.876;2023-06-22T09:45:57;100989.75;;;25.45;76.58
19676;BME280;39539;52.202;9.876;2023-06-22T09:48:22;100991.06;;;25.48;75.77
19676;BME280;39539;52.202;9.876;2023-06-22T09:50:49;100972.69;;;25.40;77.31
19676;BME280;39539;52.202;9.876;2023-06-22T09:53:14;100963.06;;;25.75;76.28
19676;BME280;39539;52.202;9.876;2023-06-22T09:55:41;100942.59;;;26.19;74.76
19676;BME280;39539;52.202;9.876;2023-06-22T09:58:16;100966.75;;;26.62;72.71
19676;BME280;39539;52.202;9.876;2023-06-22T10:00:43;100960.81;;;26.32;72.72
19676;BME280;39539;52.202;9.876;2023-06-22T10:03:08;100966.69;;;26.53;72.76
19676;BME280;39539;52.202;9.876;2023-06-22T10:05:34;100967.06;;;26.47;72.49
19676;BME280;39539;52.202;9.876;2023-06-22T10:08:01;100967.28;;;26.50;72.41
19676;BME280;39539;52.202;9.876;2023-06-22T10:10:29;100968.50;;;25.75;75.70
19676;BME280;39539;52.202;9.876;2023-06-22T10:13:06;100969.94;;;25.86;76.59
19676;BME280;39539;52.202;9.876;2023-06-22T10:15:36;100974.38;;;25.82;76.88
19676;BME280;39539;52.202;9.876;2023-06-22T10:18:02;100967.69;;;25.74;77.30
19676;BME280;39539;52.202;9.876;2023-06-22T10:20:28;100966.59;;;26.31;75.07
19676;BME280;39539;52.202;9.876;2023-06-22T10:22:54;100975.16;;;26.24;74.77
19676;BME280;39539;52.202;9.876;2023-06-22T10:25:21;100953.41;;;25.96;77.08
19676;BME280;39539;52.202;9.876;2023-06-22T10:27:52;100956.84;;;26.16;76.94
19676;BME280;39539;52.202;9.876;2023-06-22T10:30:17;100963.09;;;25.89;77.79
19676;BME280;39539;52.202;9.876;2023-06-22T10:32:49;100960.88;;;26.05;77.49
19676;BME280;39539;52.202;9.876;2023-06-22T10:35:16;100950.97;;;26.09;77.20
19676;BME280;39539;52.202;9.876;2023-06-22T10:37:45;100945.53;;;25.95;78.12
19676;BME280;39539;52.202;9.876;2023-06-22T10:40:27;100923.31;;;25.60;80.62
19676;BME280;39539;52.202;9.876;2023-06-22T10:42:53;100926.56;;;25.90;79.39
19676;BME280;39539;52.202;9.876;2023-06-22T10:45:19;100942.28;;;26.07;78.19
19676;BME280;39539;52.202;9.876;2023-06-22T10:47:47;100928.78;;;26.02;78.34
19676;BME280;39539;52.202;9.876;2023-06-22T10:50:13;100925.16;;;25.92;79.67
19676;BME280;39539;52.202;9.876;2023-06-22T10:52:38;100923.00;;;26.17;78.15
19676;BME280;39539;52.202;9.876;2023-06-22T10:55:05;100924.47;;;26.37;75.94
19676;BME280;39539;52.202;9.876;2023-06-22T10:57:34;100914.66;;;26.00;77.99
19676;BME280;39539;52.202;9.876;2023-06-22T11:00:06;100905.88;;;25.75;79.95
19676;BME280;39539;52.202;9.876;2023-06-22T11:02:41;100914.88;;;25.89;80.36
19676;BME280;39539;52.202;9.876;2023-06-22T11:05:11;100920.28;;;26.17;79.86
19676;BME280;39539;52.202;9.876;2023-06-22T11:07:41;100921.94;;;26.77;76.58
19676;BME280;39539;52.202;9.876;2023-06-22T11:10:07;100915.91;;;26.66;75.96
19676;BME280;39539;52.202;9.876;2023-06-22T11:12:32;100917.66;;;27.07;76.88
19676;BME280;39539;52.202;9.876;2023-06-22T11:14:58;100918.31;;;27.75;73.01
19676;BME280;39539;52.202;9.876;2023-06-22T11:17:23;100904.47;;;28.37;70.59
19676;BME280;39539;52.202;9.876;2023-06-22T11:19:49;100894.50;;;28.85;67.49
19676;BME280;39539;52.202;9.876;2023-06-22T11:22:27;100895.97;;;28.65;68.54
19676;BME280;39539;52.202;9.876;2023-06-22T11:24:54;100892.41;;;28.82;66.56
19676;BME280;39539;52.202;9.876;2023-06-22T11:27:20;100879.88;;;28.55;68.40
19676;BME280;39539;52.202;9.876;2023-06-22T11:29:49;100866.84;;;28.43;68.40
19676;BME280;39539;52.202;9.876;2023-06-22T11:32:15;100870.03;;;28.28;69.04
19676;BME280;39539;52.202;9.876;2023-06-22T11:34:40;100863.97;;;28.48;70.09
19676;BME280;39539;52.202;9.876;2023-06-22T11:37:06;100851.22;;;28.35;68.73
19676;BME280;39539;52.202;9.876;2023-06-22T11:39:31;100846.25;;;28.37;69.27
19676;BME280;39539;52.202;9.876;2023-06-22T11:41:57;100840.94;;;28.23;70.04
19676;BME280;39539;52.202;9.876;2023-06-22T11:44:22;100839.31;;;28.31;69.84
19676;BME280;39539;52.202;9.876;2023-06-22T11:46:53;100832.25;;;28.30;69.25
19676;BME280;39539;52.202;9.876;2023-06-22T11:49:18;100832.75;;;28.49;68.43
19676;BME280;39539;52.202;9.876;2023-06-22T11:51:45;100817.63;;;28.26;70.39
19676;BME280;39539;52.202;9.876;2023-06-22T11:54:10;100797.69;;;28.34;70.65
19676;BME280;39539;52.202;9.876;2023-06-22T11:56:36;100805.53;;;28.53;69.55
19676;BME280;39539;52.202;9.876;2023-06-22T11:59:01;100805.56;;;28.27;71.50
19676;BME280;39539;52.202;9.876;2023-06-22T12:01:27;100794.13;;;28.33;70.38
19676;BME280;39539;52.202;9.876;2023-06-22T12:03:54;100797.63;;;28.69;69.41
19676;BME280;39539;52.202;9.876;2023-06-22T12:06:19;100795.97;;;28.85;67.07
19676;BME280;39539;52.202;9.876;2023-06-22T12:08:50;100790.28;;;28.99;66.29
19676;BME280;39539;52.202;9.876;2023-06-22T12:11:15;100781.28;;;28.90;66.58
19676;BME280;39539;52.202;9.876;2023-06-22T12:13:41;100774.75;;;29.50;62.84
19676;BME280;39539;52.202;9.876;2023-06-22T12:16:09;100781.25;;;30.08;62.70
19676;BME280;39539;52.202;9.876;2023-06-22T12:18:36;100766.41;;;30.30;62.66
19676;BME280;39539;52.202;9.876;2023-06-22T12:21:04;100755.00;;;30.40;59.69
19676;BME280;39539;52.202;9.876;2023-06-22T12:23:30;100747.09;;;29.64;59.78
19676;BME280;39539;52.202;9.876;2023-06-22T12:25:55;100749.97;;;29.17;62.00
19676;BME280;39539;52.202;9.876;2023-06-22T12:28:21;100743.97;;;28.85;63.36
19676;BME280;39539;52.202;9.876;2023-06-22T12:30:50;100745.59;;;29.16;61.46
19676;BME280;39539;52.202;9.876;2023-06-22T12:33:15;100726.94;;;28.79;62.93
19676;BME280;39539;52.202;9.876;2023-06-22T12:35:41;100723.72;;;29.16;62.56
19676;BME280;39539;52.202;9.876;2023-06-22T12:38:06;100738.06;;;29.13;62.97
19676;BME280;39539;52.202;9.876;2023-06-22T12:40:36;100723.25;;;28.75;64.90
19676;BME280;39539;52.202;9.876;2023-06-22T12:43:03;100725.25;;;28.57;64.36
19676;BME280;39539;52.202;9.876;2023-06-22T12:45:29;100718.66;;;28.50;67.73
19676;BME280;39539;52.202;9.876;2023-06-22T12:47:58;100723.66;;;28.30;67.60
19676;BME280;39539;52.202;9.876;2023-06-22T12:50:25;100713.34;;;28.53;67.34
19676;BME280;39539;52.202;9.876;2023-06-22T12:52:50;100724.41;;;28.65;67.26
19676;BME280;39539;52.202;9.876;2023-06-22T12:55:16;100725.59;;;29.24;65.04